createdAt,value
2022-08-10T00:01:53.730Z,21.59
2022-08-10T00:04:22.047Z,21.59
2022-08-10T00:06:50.970Z,21.59
2022-08-10T00:09:17.463Z,21.56
2022-08-10T00:11:43.935Z,21.55
2022-08-10T00:14:11.656Z,21.53
2022-08-10T00:16:38.115Z,21.52
2022-08-10T00:19:04.597Z,21.51
2022-08-10T00:21:31.092Z,21.50
2022-08-10T00:23:57.571Z,21.49
2022-08-10T00:26:24.021Z,21.47
2022-08-10T00:28:50.501Z,21.46
2022-08-10T00:31:18.337Z,21.46
2022-08-10T00:33:44.813Z,21.46
2022-08-10T00:36:11.372Z,21.42
2022-08-10T00:38:37.927Z,21.41
2022-08-10T00:41:04.687Z,21.43
2022-08-10T00:43:31.370Z,21.43
2022-08-10T00:45:59.790Z,21.41
2022-08-10T00:48:28.934Z,21.38
2022-08-10T00:50:55.824Z,21.36
2022-08-10T00:53:22.315Z,21.37
2022-08-10T00:57:14.068Z,21.34
2022-08-10T00:58:36.871Z,21.33
2022-08-10T01:01:06.047Z,21.33
2022-08-10T01:04:36.657Z,21.34
2022-08-10T01:06:29.234Z,21.34
2022-08-10T01:09:05.368Z,21.33
2022-08-10T01:12:38.294Z,21.32
2022-08-10T01:14:28.916Z,21.29
2022-08-10T01:17:00.730Z,21.26
2022-08-10T01:19:40.846Z,21.26
2022-08-10T01:22:26.501Z,21.24
2022-08-10T01:25:19.914Z,21.21
2022-08-10T01:27:54.504Z,21.19
2022-08-10T01:30:24.107Z,21.20
2022-08-10T01:32:53.958Z,21.20
2022-08-10T01:35:26.788Z,21.21
2022-08-10T01:38:02.248Z,21.20
2022-08-10T01:40:32.495Z,21.18
2022-08-10T01:43:08.407Z,21.18
2022-08-10T01:45:45.209Z,21.16
2022-08-10T01:48:19.238Z,21.15
2022-08-10T01:50:59.252Z,21.13
2022-08-10T01:53:41.417Z,21.11
2022-08-10T01:56:10.480Z,21.10
2022-08-10T01:58:38.245Z,21.11
2022-08-10T02:01:07.640Z,21.09
2022-08-10T02:03:36.925Z,21.09
2022-08-10T02:06:26.679Z,21.07
2022-08-10T02:09:00.343Z,21.05
2022-08-10T02:12:06.406Z,21.04
2022-08-10T02:14:21.611Z,21.02
2022-08-10T02:16:52.056Z,21.01
2022-08-10T02:19:22.097Z,21.01
2022-08-10T02:22:36.112Z,21.02
2022-08-10T02:24:40.765Z,21.01
2022-08-10T02:27:08.418Z,21.01
2022-08-10T02:29:36.427Z,21.01
2022-08-10T02:32:07.818Z,20.99
2022-08-10T02:34:37.219Z,20.97
2022-08-10T02:37:11.060Z,20.95
2022-08-10T02:39:39.208Z,20.93
2022-08-10T02:45:15.316Z,20.92
2022-08-10T02:45:18.407Z,20.92
2022-08-10T02:47:58.407Z,20.89
2022-08-10T02:50:28.519Z,20.90
2022-08-10T02:53:00.201Z,20.88
2022-08-10T02:55:33.311Z,20.89
2022-08-10T02:58:12.612Z,20.86
2022-08-10T03:00:49.527Z,20.85
2022-08-10T03:03:22.589Z,20.85
2022-08-10T03:05:53.515Z,20.84
2022-08-10T03:08:24.602Z,20.81
2022-08-10T03:10:52.712Z,20.81
2022-08-10T03:13:20.578Z,20.81
2022-08-10T03:15:49.127Z,20.81
2022-08-10T03:18:18.512Z,20.81
2022-08-10T03:20:46.908Z,20.79
2022-08-10T03:23:16.388Z,20.76
2022-08-10T03:25:52.578Z,20.76
2022-08-10T03:28:22.117Z,20.76
2022-08-10T03:30:49.081Z,20.75
2022-08-10T03:33:17.064Z,20.76
2022-08-10T03:36:40.038Z,20.74
2022-08-10T03:38:31.634Z,20.73
2022-08-10T03:41:01.972Z,20.72
2022-08-10T03:43:29.256Z,20.71
2022-08-10T03:45:59.815Z,20.71
2022-08-10T03:48:42.418Z,20.69
2022-08-10T03:51:17.238Z,20.65
2022-08-10T03:54:05.771Z,20.63
2022-08-10T03:56:33.019Z,20.63
2022-08-10T03:59:00.472Z,20.62
2022-08-10T04:02:52.871Z,20.63
2022-08-10T04:04:17.846Z,20.62
2022-08-10T04:06:54.447Z,20.61
2022-08-10T04:09:22.850Z,20.61
2022-08-10T04:11:49.731Z,20.58
2022-08-10T04:14:48.913Z,20.57
2022-08-10T04:17:02.767Z,20.56
2022-08-10T04:19:35.366Z,20.55
2022-08-10T04:22:10.221Z,20.57
2022-08-10T04:24:39.701Z,20.56
2022-08-10T04:27:06.640Z,20.55
2022-08-10T04:29:33.465Z,20.54
2022-08-10T04:32:02.858Z,20.52
2022-08-10T04:34:30.775Z,20.54
2022-08-10T04:37:08.671Z,20.54
2022-08-10T04:39:37.864Z,20.53
2022-08-10T04:42:04.996Z,20.50
2022-08-10T04:44:32.139Z,20.51
2022-08-10T04:46:59.400Z,20.48
2022-08-10T04:49:54.054Z,20.45
2022-08-10T04:52:13.184Z,20.47
2022-08-10T04:54:41.816Z,20.45
2022-08-10T04:57:08.504Z,20.45
2022-08-10T04:59:34.945Z,20.43
2022-08-10T05:02:22.214Z,20.44
2022-08-10T05:04:47.811Z,20.43
2022-08-10T05:07:18.166Z,20.42
2022-08-10T05:10:01.133Z,20.41
2022-08-10T05:12:32.247Z,20.39
2022-08-10T05:15:02.822Z,20.40
2022-08-10T05:17:29.272Z,20.39
2022-08-10T05:20:02.822Z,20.37
2022-08-10T05:22:33.482Z,20.38
2022-08-10T05:25:01.355Z,20.38
2022-08-10T05:27:27.942Z,20.36
2022-08-10T05:30:01.167Z,20.37
2022-08-10T05:32:28.460Z,20.35
2022-08-10T05:34:55.032Z,20.36
2022-08-10T05:38:12.963Z,20.36
2022-08-10T05:40:11.348Z,20.36
2022-08-10T05:42:38.548Z,20.37
2022-08-10T05:45:05.497Z,20.37
2022-08-10T05:48:40.580Z,20.37
2022-08-10T05:50:21.118Z,20.36
2022-08-10T05:52:48.074Z,20.35
2022-08-10T05:55:17.359Z,20.35
2022-08-10T05:57:45.113Z,20.33
2022-08-10T06:00:37.149Z,20.33
2022-08-10T06:03:03.643Z,20.33
2022-08-10T06:05:34.542Z,20.33
2022-08-10T06:08:05.658Z,20.34
2022-08-10T06:10:35.283Z,20.35
2022-08-10T06:13:07.653Z,20.33
2022-08-10T06:15:56.236Z,20.33
2022-08-10T06:18:24.068Z,20.36
2022-08-10T06:20:51.444Z,20.35
2022-08-10T06:23:18.851Z,20.36
2022-08-10T06:26:11.668Z,20.36
2022-08-10T06:28:37.351Z,20.37
2022-08-10T06:31:06.971Z,20.37
2022-08-10T06:33:37.361Z,20.38
2022-08-10T06:36:07.605Z,20.38
2022-08-10T06:38:35.846Z,20.38
2022-08-10T06:41:09.188Z,20.37
2022-08-10T06:43:40.047Z,20.40
2022-08-10T06:46:09.700Z,20.40
2022-08-10T06:48:41.325Z,20.41
2022-08-10T06:51:14.185Z,20.42
2022-08-10T06:53:54.276Z,20.44
2022-08-10T06:56:38.113Z,20.45
2022-08-10T06:59:14.596Z,20.48
2022-08-10T07:01:52.573Z,20.48
2022-08-10T07:04:32.372Z,20.52
2022-08-10T07:07:04.004Z,20.52
2022-08-10T07:09:32.737Z,20.54
2022-08-10T07:12:07.925Z,20.54
2022-08-10T07:14:38.498Z,20.56
2022-08-10T07:17:05.939Z,20.58
2022-08-10T07:19:33.492Z,20.59
2022-08-10T07:22:01.467Z,20.60
2022-08-10T07:24:28.925Z,20.60
2022-08-10T07:26:56.975Z,20.62
2022-08-10T07:29:52.999Z,20.63
2022-08-10T07:32:13.861Z,20.64
2022-08-10T07:34:41.618Z,20.65
2022-08-10T07:37:10.102Z,20.67
2022-08-10T07:40:02.936Z,20.67
2022-08-10T07:42:31.146Z,20.69
2022-08-10T07:44:59.775Z,20.69
2022-08-10T07:47:46.134Z,20.71
2022-08-10T07:50:20.582Z,20.73
2022-08-10T07:52:49.105Z,20.74
2022-08-10T07:55:18.211Z,20.75
2022-08-10T07:57:48.164Z,20.76
2022-08-10T08:00:17.472Z,20.78
2022-08-10T08:02:47.797Z,20.80
2022-08-10T08:05:57.533Z,20.80
2022-08-10T08:08:03.558Z,20.81
2022-08-10T08:10:31.230Z,20.84
2022-08-10T08:12:59.351Z,20.85
2022-08-10T08:16:19.359Z,20.86
2022-08-10T08:18:20.513Z,20.87
2022-08-10T08:20:53.084Z,20.88
2022-08-10T08:24:05.336Z,20.88
2022-08-10T08:26:10.166Z,20.91
2022-08-10T08:28:37.378Z,20.92
2022-08-10T08:31:05.744Z,20.95
2022-08-10T08:33:41.230Z,20.95
2022-08-10T08:36:09.664Z,20.95
2022-08-10T08:38:37.281Z,20.96
2022-08-10T08:41:25.461Z,21.00
2022-08-10T08:44:04.739Z,21.00
2022-08-10T08:46:58.959Z,21.01
2022-08-10T08:50:08.012Z,21.02
2022-08-10T08:52:43.966Z,21.04
2022-08-10T08:56:04.063Z,21.06
2022-08-10T08:58:29.654Z,21.08
2022-08-10T09:01:01.243Z,21.08
2022-08-10T09:03:47.061Z,21.10
2022-08-10T09:06:33.788Z,21.11
2022-08-10T09:09:19.834Z,21.12
2022-08-10T09:12:04.714Z,21.13
2022-08-10T09:14:38.153Z,21.14
2022-08-10T09:17:15.227Z,21.15
2022-08-10T09:19:49.495Z,21.17
2022-08-10T09:22:25.304Z,21.19
2022-08-10T09:24:57.839Z,21.19
2022-08-10T09:27:35.198Z,21.21
2022-08-10T09:30:06.286Z,21.20
2022-08-10T09:36:16.061Z,21.20
2022-08-10T09:36:24.404Z,21.24
2022-08-10T09:38:33.618Z,21.25
2022-08-10T09:41:16.241Z,21.24
2022-08-10T09:43:54.780Z,21.24
2022-08-10T09:46:44.463Z,21.26
2022-08-10T09:49:22.418Z,21.28
2022-08-10T09:52:07.094Z,21.30
2022-08-10T09:54:42.801Z,21.32
2022-08-10T09:57:55.100Z,21.35
2022-08-10T10:00:05.810Z,21.35
2022-08-10T10:02:40.148Z,21.36
2022-08-10T10:05:18.228Z,21.37
2022-08-10T10:07:55.440Z,21.38
2022-08-10T10:10:27.013Z,21.39
2022-08-10T10:12:58.626Z,21.39
2022-08-10T10:15:34.645Z,21.40
2022-08-10T10:18:13.897Z,21.40
2022-08-10T10:20:49.123Z,21.41
2022-08-10T10:23:31.560Z,21.43
2022-08-10T10:26:13.029Z,21.43
2022-08-10T10:29:24.644Z,21.44
2022-08-10T10:31:50.660Z,21.47
2022-08-10T10:34:25.014Z,21.47
2022-08-10T10:36:53.163Z,21.49
2022-08-10T10:39:25.536Z,21.49
2022-08-10T10:42:05.278Z,21.47
2022-08-10T10:44:42.512Z,21.49
2022-08-10T10:47:29.576Z,21.50
2022-08-10T10:50:05.883Z,21.50
2022-08-10T10:52:42.821Z,21.52
2022-08-10T10:55:16.020Z,21.51
2022-08-10T10:57:59.057Z,21.54
2022-08-10T11:00:34.405Z,21.54
2022-08-10T11:03:18.355Z,21.55
2022-08-10T11:05:49.686Z,21.55
2022-08-10T11:08:19.575Z,21.59
2022-08-10T11:11:01.509Z,21.59
2022-08-10T11:14:24.717Z,21.62
2022-08-10T11:16:29.646Z,21.60
2022-08-10T11:19:03.274Z,21.62
2022-08-10T11:21:43.677Z,21.60
2022-08-10T11:24:44.393Z,21.62
2022-08-10T11:27:22.519Z,21.63
2022-08-10T11:29:58.839Z,21.64
2022-08-10T11:32:35.076Z,21.65
2022-08-10T11:35:12.738Z,21.68
2022-08-10T11:38:30.005Z,21.70
2022-08-10T11:40:43.939Z,21.73
2022-08-10T11:43:17.776Z,21.72
2022-08-10T11:45:55.380Z,21.71
2022-08-10T11:48:52.932Z,21.70
2022-08-10T11:51:24.941Z,21.71
2022-08-10T11:54:00.311Z,21.71
2022-08-10T11:56:33.360Z,21.71
2022-08-10T11:59:01.166Z,21.73
2022-08-10T12:01:45.336Z,21.73
2022-08-10T12:04:13.679Z,21.72
2022-08-10T12:06:55.162Z,21.73
2022-08-10T12:10:09.365Z,21.76
2022-08-10T12:12:11.771Z,21.74
2022-08-10T12:14:46.727Z,21.77
2022-08-10T12:17:16.724Z,21.77
2022-08-10T12:19:59.574Z,21.71
2022-08-10T12:22:35.819Z,21.74
2022-08-10T12:25:07.420Z,21.76
2022-08-10T12:27:39.981Z,21.75
2022-08-10T12:30:09.921Z,21.74
2022-08-10T12:32:44.684Z,21.74
2022-08-10T12:35:21.955Z,21.73
2022-08-10T12:38:02.545Z,21.70
2022-08-10T12:40:36.391Z,21.70
2022-08-10T12:43:13.177Z,21.75
2022-08-10T12:46:07.213Z,21.73
2022-08-10T12:48:37.089Z,21.73
2022-08-10T12:51:10.479Z,21.78
2022-08-10T12:53:46.863Z,21.81
2022-08-10T12:56:21.266Z,21.79
2022-08-10T12:58:59.334Z,21.76
2022-08-10T13:02:06.604Z,21.79
2022-08-10T13:04:26.941Z,21.77
2022-08-10T13:06:53.840Z,21.79
2022-08-10T13:09:22.145Z,21.78
2022-08-10T13:12:37.151Z,21.82
2022-08-10T13:14:46.408Z,21.85
2022-08-10T13:17:21.343Z,21.87
2022-08-10T13:19:55.130Z,21.89
2022-08-10T13:22:28.429Z,21.91
2022-08-10T13:25:00.426Z,21.91
2022-08-10T13:27:59.704Z,21.94
2022-08-10T13:30:37.174Z,21.96
2022-08-10T13:33:07.048Z,21.97
2022-08-10T13:35:34.527Z,21.98
2022-08-10T13:38:03.481Z,21.98
2022-08-10T13:40:32.921Z,21.96
2022-08-10T13:43:02.281Z,21.98
2022-08-10T13:45:30.162Z,22.01
2022-08-10T13:48:12.408Z,22.05
2022-08-10T13:50:40.629Z,22.05
2022-08-10T13:53:14.972Z,22.07
2022-08-10T13:55:54.439Z,22.06
2022-08-10T13:58:24.769Z,22.04
2022-08-10T14:00:52.786Z,22.07
2022-08-10T14:03:22.859Z,22.06
2022-08-10T14:05:51.939Z,22.07
2022-08-10T14:08:22.953Z,22.06
2022-08-10T14:11:09.553Z,22.03
2022-08-10T14:13:43.300Z,22.02
2022-08-10T14:16:11.068Z,22.05
2022-08-10T14:18:40.407Z,22.07
2022-08-10T14:21:07.211Z,22.10
2022-08-10T14:23:39.882Z,22.12
2022-08-10T14:26:09.377Z,22.12
2022-08-10T14:28:41.471Z,22.14
2022-08-10T14:31:11.585Z,22.14
2022-08-10T14:33:44.502Z,22.20
2022-08-10T14:36:23.751Z,22.21
2022-08-10T14:38:53.868Z,22.21
2022-08-10T14:42:01.252Z,22.23
2022-08-10T14:44:16.343Z,22.23
2022-08-10T14:46:46.003Z,22.24
2022-08-10T14:49:25.908Z,22.23
2022-08-10T14:51:59.115Z,22.23
2022-08-10T14:54:29.077Z,22.22
2022-08-10T14:57:11.308Z,22.25
2022-08-10T15:00:24.260Z,22.24
2022-08-10T15:02:40.537Z,22.23
2022-08-10T15:05:17.865Z,22.24
2022-08-10T15:07:46.644Z,22.30
2022-08-10T15:10:26.045Z,22.34
2022-08-10T15:12:58.850Z,22.37
2022-08-10T15:15:28.840Z,22.38
2022-08-10T15:17:58.261Z,22.39
2022-08-10T15:20:29.263Z,22.41
2022-08-10T15:22:59.919Z,22.42
2022-08-10T15:25:28.844Z,22.43
2022-08-10T15:27:58.157Z,22.44
2022-08-10T15:30:38.572Z,22.45
2022-08-10T15:33:06.634Z,22.48
2022-08-10T15:35:38.309Z,22.48
2022-08-10T15:38:06.762Z,22.52
2022-08-10T15:40:40.632Z,22.53
2022-08-10T15:43:24.999Z,22.56
2022-08-10T15:45:58.903Z,22.57
2022-08-10T15:48:29.002Z,22.57
2022-08-10T15:51:05.640Z,22.59
2022-08-10T15:53:49.210Z,22.59
2022-08-10T15:56:27.958Z,22.61
2022-08-10T15:59:07.565Z,22.61
2022-08-10T16:02:14.047Z,22.66
2022-08-10T16:04:31.953Z,22.69
2022-08-10T16:07:06.186Z,22.72
2022-08-10T16:10:10.976Z,22.73
2022-08-10T16:12:30.462Z,22.76
2022-08-10T16:15:00.748Z,22.78
2022-08-10T16:17:28.943Z,22.77
2022-08-10T16:19:57.599Z,22.80
2022-08-10T16:22:35.664Z,22.77
2022-08-10T16:25:13.634Z,22.79
2022-08-10T16:27:41.189Z,22.79
2022-08-10T16:32:35.594Z,22.82
2022-08-10T16:35:08.916Z,22.85
2022-08-10T16:37:59.034Z,22.83
2022-08-10T16:40:27.511Z,22.88
2022-08-10T16:42:55.944Z,22.89
2022-08-10T16:45:30.387Z,22.92
2022-08-10T16:47:58.426Z,22.95
2022-08-10T16:50:28.955Z,22.93
2022-08-10T16:52:59.698Z,22.95
2022-08-10T16:55:48.740Z,22.98
2022-08-10T16:58:18.414Z,22.97
2022-08-10T17:00:46.113Z,22.97
2022-08-10T17:03:22.598Z,22.98
2022-08-10T17:06:11.236Z,22.97
2022-08-10T17:08:48.006Z,23.00
2022-08-10T17:11:17.241Z,23.04
2022-08-10T17:13:43.912Z,23.03
2022-08-10T17:16:13.637Z,23.05
2022-08-10T17:18:45.146Z,23.06
2022-08-10T17:21:17.820Z,23.09
2022-08-10T17:23:48.780Z,23.10
2022-08-10T17:26:17.853Z,23.11
2022-08-10T17:28:51.960Z,23.10
2022-08-10T17:31:24.126Z,23.10
2022-08-10T17:34:13.621Z,23.10
2022-08-10T17:36:44.688Z,23.10
2022-08-10T17:39:14.817Z,23.10
2022-08-10T17:41:47.287Z,23.13
2022-08-10T17:44:16.060Z,23.11
2022-08-10T17:46:44.760Z,23.13
2022-08-10T17:49:13.330Z,23.17
2022-08-10T17:51:41.634Z,23.16
2022-08-10T17:54:23.662Z,23.17
2022-08-10T17:56:52.141Z,23.17
2022-08-10T17:59:23.207Z,23.16
2022-08-10T18:01:58.658Z,23.15
2022-08-10T18:04:31.994Z,23.13
2022-08-10T18:07:02.161Z,23.14
2022-08-10T18:09:35.105Z,23.13
2022-08-10T18:12:10.114Z,23.14
2022-08-10T18:14:40.396Z,23.16
2022-08-10T18:17:12.925Z,23.16
2022-08-10T18:19:43.429Z,23.20
2022-08-10T18:22:12.188Z,23.19
2022-08-10T18:24:41.800Z,23.20
2022-08-10T18:27:09.453Z,23.20
2022-08-10T18:29:39.503Z,23.19
2022-08-10T18:32:08.323Z,23.19
2022-08-10T18:34:36.537Z,23.19
2022-08-10T18:37:07.016Z,23.18
2022-08-10T18:39:37.304Z,23.17
2022-08-10T18:42:10.070Z,23.17
2022-08-10T18:44:40.732Z,23.15
2022-08-10T18:47:13.122Z,23.16
2022-08-10T18:49:53.275Z,23.16
2022-08-10T18:52:22.307Z,23.16
2022-08-10T18:54:53.569Z,23.16
2022-08-10T18:57:32.750Z,23.16
2022-08-10T19:00:08.342Z,23.15
2022-08-10T19:03:04.626Z,23.15
2022-08-10T19:05:48.419Z,23.14
2022-08-10T19:08:31.227Z,23.11
2022-08-10T19:11:05.374Z,23.10
2022-08-10T19:13:50.657Z,23.09
2022-08-10T19:16:35.604Z,23.09
2022-08-10T19:19:22.868Z,23.08
2022-08-10T19:22:04.333Z,23.07
2022-08-10T19:24:43.839Z,23.08
2022-08-10T19:27:17.369Z,23.07
2022-08-10T19:30:11.360Z,23.07
2022-08-10T19:32:52.548Z,23.05
2022-08-10T19:35:28.196Z,23.04
2022-08-10T19:38:16.628Z,23.05
2022-08-10T19:40:53.229Z,23.04
2022-08-10T19:43:59.347Z,23.03
2022-08-10T19:46:27.470Z,23.04
2022-08-10T19:49:02.129Z,23.05
2022-08-10T19:51:39.174Z,23.05
2022-08-10T19:54:12.246Z,23.05
2022-08-10T19:56:46.887Z,23.03
2022-08-10T20:00:06.464Z,23.03
2022-08-10T20:02:21.723Z,23.01
2022-08-10T20:05:00.052Z,23.01
2022-08-10T20:07:34.936Z,22.99
2022-08-10T20:10:09.877Z,22.98
2022-08-10T20:12:45.482Z,22.98
2022-08-10T20:15:22.802Z,22.98
2022-08-10T20:17:56.320Z,22.96
2022-08-10T20:20:30.663Z,22.97
2022-08-10T20:23:11.942Z,22.96
2022-08-10T20:25:41.390Z,22.96
2022-08-10T20:28:18.130Z,22.96
2022-08-10T20:30:50.231Z,22.93
2022-08-10T20:33:26.078Z,22.90
2022-08-10T20:36:00.258Z,22.90
2022-08-10T20:38:38.448Z,22.89
2022-08-10T20:41:21.650Z,22.89
2022-08-10T20:44:00.101Z,22.86
2022-08-10T20:46:33.795Z,22.87
2022-08-10T20:49:11.514Z,22.86
2022-08-10T20:51:58.115Z,22.85
2022-08-10T20:54:33.676Z,22.85
2022-08-10T20:58:04.568Z,22.84
2022-08-10T21:00:05.909Z,22.80
2022-08-10T21:02:49.711Z,22.81
2022-08-10T21:05:22.741Z,22.79
2022-08-10T21:08:02.875Z,22.77
2022-08-10T21:10:49.837Z,22.77
2022-08-10T21:13:30.453Z,22.76
2022-08-10T21:16:06.820Z,22.75
2022-08-10T21:18:45.368Z,22.75
2022-08-10T21:21:41.148Z,22.74
2022-08-10T21:24:17.182Z,22.72
2022-08-10T21:26:56.788Z,22.72
2022-08-10T21:29:40.905Z,22.71
2022-08-10T21:32:19.623Z,22.71
2022-08-10T21:35:00.891Z,22.68
2022-08-10T21:37:41.378Z,22.68
2022-08-10T21:40:34.838Z,22.67
2022-08-10T21:43:24.183Z,22.66
2022-08-10T21:46:08.116Z,22.66
2022-08-10T21:48:43.268Z,22.64
2022-08-10T21:51:24.221Z,22.64
2022-08-10T21:54:03.107Z,22.62
2022-08-10T21:56:35.286Z,22.62
2022-08-10T21:59:05.045Z,22.61
2022-08-10T22:01:39.256Z,22.61
2022-08-10T22:04:07.114Z,22.59
2022-08-10T22:06:39.455Z,22.57
2022-08-10T22:09:33.876Z,22.57
2022-08-10T22:12:24.986Z,22.57
2022-08-10T22:15:04.729Z,22.55
2022-08-10T22:18:10.891Z,22.54
2022-08-10T22:20:27.122Z,22.52
2022-08-10T22:23:19.142Z,22.52
2022-08-10T22:25:56.984Z,22.51
2022-08-10T22:28:27.185Z,22.50
2022-08-10T22:31:29.861Z,22.50
2022-08-10T22:34:02.540Z,22.50
2022-08-10T22:36:50.864Z,22.49
2022-08-10T22:40:10.158Z,22.48
2022-08-10T22:42:22.540Z,22.48
2022-08-10T22:44:51.713Z,22.46
2022-08-10T22:47:21.062Z,22.45
2022-08-10T22:49:51.398Z,22.43
2022-08-10T22:52:22.338Z,22.42
2022-08-10T22:54:53.563Z,22.39
2022-08-10T22:57:21.754Z,22.41
2022-08-10T22:59:49.875Z,22.39
2022-08-10T23:02:27.921Z,22.37
2022-08-10T23:04:58.241Z,22.39
2022-08-10T23:07:29.256Z,22.37
2022-08-10T23:10:01.101Z,22.35
2022-08-10T23:12:34.769Z,22.36
2022-08-10T23:15:03.232Z,22.35
2022-08-10T23:18:01.795Z,22.32
2022-08-10T23:20:18.562Z,22.32
2022-08-10T23:22:50.169Z,22.31
2022-08-10T23:25:20.146Z,22.31
2022-08-10T23:27:50.510Z,22.31
2022-08-10T23:30:33.227Z,22.30
2022-08-10T23:33:02.111Z,22.28
2022-08-10T23:36:05.513Z,22.27
2022-08-10T23:38:32.013Z,22.25
2022-08-10T23:41:02.431Z,22.24
2022-08-10T23:44:00.409Z,22.24
2022-08-10T23:46:23.584Z,22.23
2022-08-10T23:48:54.501Z,22.23
2022-08-10T23:51:38.915Z,22.21
2022-08-10T23:54:19.632Z,22.18
2022-08-10T23:56:50.508Z,22.17
2022-08-10T23:59:23.082Z,22.17
